createdAt,value
2022-08-21T00:02:17.820Z,96247.00
2022-08-21T00:04:48.315Z,96250.00
2022-08-21T00:07:24.154Z,96247.78
2022-08-21T00:09:52.462Z,96246.19
2022-08-21T00:12:18.995Z,96239.22
2022-08-21T00:14:46.001Z,96242.91
2022-08-21T00:17:13.252Z,96244.91
2022-08-21T00:19:39.644Z,96234.63
2022-08-21T00:22:06.579Z,96232.97
2022-08-21T00:24:32.963Z,96240.88
2022-08-21T00:26:59.723Z,96234.50
2022-08-21T00:29:26.555Z,96235.19
2022-08-21T00:31:53.313Z,96223.16
2022-08-21T00:34:19.761Z,96229.78
2022-08-21T00:36:47.014Z,96232.19
2022-08-21T00:39:13.366Z,96219.31
2022-08-21T00:41:40.535Z,96228.31
2022-08-21T00:44:09.990Z,96231.66
2022-08-21T00:46:37.080Z,96227.16
2022-08-21T00:49:05.323Z,96223.56
2022-08-21T00:52:01.255Z,96215.50
2022-08-21T00:54:30.698Z,96218.28
2022-08-21T00:57:01.742Z,96219.50
2022-08-21T00:59:30.288Z,96225.59
2022-08-21T01:01:56.670Z,96232.84
2022-08-21T01:04:24.566Z,96227.97
2022-08-21T01:06:52.303Z,96220.94
2022-08-21T01:09:19.796Z,96226.06
2022-08-21T01:11:47.094Z,96226.94
2022-08-21T01:14:14.990Z,96215.25
2022-08-21T01:16:45.049Z,96213.50
2022-08-21T01:19:13.275Z,96215.09
2022-08-21T01:21:39.692Z,96220.06
2022-08-21T01:24:06.633Z,96205.78
2022-08-21T01:26:37.172Z,96211.69
2022-08-21T01:29:26.871Z,96208.59
2022-08-21T01:31:53.291Z,96209.94
2022-08-21T01:34:20.143Z,96202.09
2022-08-21T01:36:47.039Z,96212.56
2022-08-21T01:39:13.443Z,96204.00
2022-08-21T01:41:40.489Z,96211.81
2022-08-21T01:44:06.875Z,96215.88
2022-08-21T01:46:33.814Z,96202.94
2022-08-21T01:49:00.596Z,96212.19
2022-08-21T01:51:27.087Z,96225.03
2022-08-21T01:53:53.471Z,96214.22
2022-08-21T01:56:20.256Z,96211.56
2022-08-21T01:58:48.032Z,96212.63
2022-08-21T02:01:15.437Z,96218.91
2022-08-21T02:03:42.592Z,96216.53
2022-08-21T02:06:15.686Z,96211.63
2022-08-21T02:08:42.804Z,96207.38
2022-08-21T02:11:09.179Z,96210.22
2022-08-21T02:13:35.574Z,96204.75
2022-08-21T02:16:02.464Z,96201.38
2022-08-21T02:18:30.602Z,96204.38
2022-08-21T02:20:57.240Z,96198.31
2022-08-21T02:23:26.481Z,96197.53
2022-08-21T02:25:53.771Z,96206.34
2022-08-21T02:28:20.674Z,96185.56
2022-08-21T02:30:48.766Z,96193.53
2022-08-21T02:33:16.739Z,96191.31
2022-08-21T02:35:44.453Z,96186.22
2022-08-21T02:38:14.867Z,96186.22
2022-08-21T02:40:48.299Z,96190.28
2022-08-21T02:43:16.196Z,96190.72
2022-08-21T02:45:43.379Z,96183.63
2022-08-21T02:48:12.252Z,96185.69
2022-08-21T02:50:43.639Z,96183.66
2022-08-21T02:53:17.884Z,96195.97
2022-08-21T02:55:49.251Z,96196.19
2022-08-21T02:58:18.595Z,96194.78
2022-08-21T03:00:45.130Z,96192.94
2022-08-21T03:03:12.335Z,96187.84
2022-08-21T03:05:38.775Z,96188.03
2022-08-21T03:08:11.131Z,96190.72
2022-08-21T03:10:41.097Z,96186.47
2022-08-21T03:13:08.164Z,96181.19
2022-08-21T03:15:34.851Z,96184.66
2022-08-21T03:18:02.772Z,96187.69
2022-08-21T03:20:30.482Z,96187.22
2022-08-21T03:22:57.051Z,96188.97
2022-08-21T03:25:39.528Z,96196.91
2022-08-21T03:28:13.371Z,96197.06
2022-08-21T03:30:43.082Z,96185.97
2022-08-21T03:33:12.256Z,96198.72
2022-08-21T03:35:39.846Z,96193.84
2022-08-21T03:38:06.571Z,96195.53
2022-08-21T03:40:33.039Z,96199.66
2022-08-21T03:42:59.815Z,96195.78
2022-08-21T03:45:27.103Z,96198.59
2022-08-21T03:47:54.890Z,96194.81
2022-08-21T03:50:21.294Z,96193.59
2022-08-21T03:52:48.124Z,96195.25
2022-08-21T03:55:14.535Z,96206.75
2022-08-21T03:57:40.916Z,96203.06
2022-08-21T04:00:10.535Z,96199.34
2022-08-21T04:02:36.898Z,96203.41
2022-08-21T04:05:03.955Z,96209.56
2022-08-21T04:07:30.851Z,96210.16
2022-08-21T04:09:57.240Z,96214.69
2022-08-21T04:12:24.486Z,96212.84
2022-08-21T04:14:52.783Z,96214.09
2022-08-21T04:17:19.691Z,96217.16
2022-08-21T04:19:49.371Z,96212.06
2022-08-21T04:22:19.981Z,96219.88
2022-08-21T04:24:46.748Z,96216.19
2022-08-21T04:27:13.104Z,96216.16
2022-08-21T04:29:40.118Z,96219.81
2022-08-21T04:32:07.865Z,96225.50
2022-08-21T04:34:34.266Z,96227.78
2022-08-21T04:37:00.653Z,96225.13
2022-08-21T04:39:29.773Z,96225.53
2022-08-21T04:41:56.600Z,96235.00
2022-08-21T04:44:22.963Z,96234.19
2022-08-21T04:46:49.871Z,96239.50
2022-08-21T04:49:16.280Z,96242.34
2022-08-21T04:51:42.796Z,96239.00
2022-08-21T04:54:18.458Z,96239.97
2022-08-21T04:56:56.398Z,96243.56
2022-08-21T04:59:40.644Z,96249.00
2022-08-21T05:02:09.579Z,96241.13
2022-08-21T05:04:40.563Z,96246.78
2022-08-21T05:07:11.764Z,96251.03
2022-08-21T05:09:39.532Z,96252.38
2022-08-21T05:12:07.191Z,96246.59
2022-08-21T05:14:34.106Z,96251.84
2022-08-21T05:17:00.499Z,96250.25
2022-08-21T05:19:27.327Z,96251.00
2022-08-21T05:21:53.692Z,96257.59
2022-08-21T05:24:20.535Z,96248.09
2022-08-21T05:26:47.798Z,96250.97
2022-08-21T05:29:16.616Z,96252.06
2022-08-21T05:31:43.901Z,96251.13
2022-08-21T05:34:10.933Z,96263.19
2022-08-21T05:36:37.333Z,96254.47
2022-08-21T05:39:04.071Z,96255.34
2022-08-21T05:41:31.186Z,96268.88
2022-08-21T05:44:00.742Z,96261.72
2022-08-21T05:46:27.187Z,96259.19
2022-08-21T05:48:54.256Z,96250.22
2022-08-21T05:51:20.640Z,96250.28
2022-08-21T05:53:47.192Z,96252.09
2022-08-21T05:56:14.738Z,96248.66
2022-08-21T05:58:41.278Z,96250.91
2022-08-21T06:01:09.738Z,96248.66
2022-08-21T06:03:39.321Z,96247.91
2022-08-21T06:06:05.932Z,96251.19
2022-08-21T06:08:32.481Z,96245.06
2022-08-21T06:11:01.221Z,96239.59
2022-08-21T06:13:28.344Z,96243.59
2022-08-21T06:16:15.817Z,96243.47
2022-08-21T06:18:44.102Z,96251.50
2022-08-21T06:21:12.264Z,96246.88
2022-08-21T06:23:39.591Z,96246.88
2022-08-21T06:26:08.068Z,96242.00
2022-08-21T06:28:35.012Z,96244.19
2022-08-21T06:31:02.168Z,96247.69
2022-08-21T06:33:32.469Z,96239.81
2022-08-21T06:35:59.279Z,96238.25
2022-08-21T06:38:25.949Z,96242.50
2022-08-21T06:40:52.963Z,96243.25
2022-08-21T06:43:19.744Z,96238.56
2022-08-21T06:45:46.784Z,96238.31
2022-08-21T06:48:18.332Z,96244.84
2022-08-21T06:50:45.537Z,96238.44
2022-08-21T06:53:14.820Z,96239.66
2022-08-21T06:55:41.448Z,96245.09
2022-08-21T06:58:09.259Z,96236.75
2022-08-21T07:00:39.800Z,96240.28
2022-08-21T07:03:06.232Z,96240.81
2022-08-21T07:05:33.687Z,96240.53
2022-08-21T07:08:00.220Z,96244.25
2022-08-21T07:10:27.723Z,96232.03
2022-08-21T07:13:01.371Z,96241.84
2022-08-21T07:15:29.052Z,96227.53
2022-08-21T07:17:57.718Z,96239.63
2022-08-21T07:20:24.159Z,96242.19
2022-08-21T07:22:50.740Z,96237.78
2022-08-21T07:25:17.692Z,96227.28
2022-08-21T07:27:44.091Z,96232.09
2022-08-21T07:30:10.831Z,96227.00
2022-08-21T07:32:37.938Z,96226.50
2022-08-21T07:35:05.008Z,96217.25
2022-08-21T07:37:31.449Z,96223.91
2022-08-21T07:39:58.417Z,96225.06
2022-08-21T07:42:25.362Z,96227.97
2022-08-21T07:44:53.136Z,96216.97
2022-08-21T07:47:41.345Z,96224.94
2022-08-21T07:50:10.058Z,96210.44
2022-08-21T07:52:36.467Z,96213.88
2022-08-21T07:55:06.296Z,96214.88
2022-08-21T07:57:33.559Z,96211.84
2022-08-21T08:00:00.001Z,96214.19
2022-08-21T08:02:29.354Z,96212.19
2022-08-21T08:04:59.874Z,96200.81
2022-08-21T08:07:27.034Z,96218.78
2022-08-21T08:09:53.784Z,96202.84
2022-08-21T08:12:21.986Z,96203.47
2022-08-21T08:14:48.507Z,96208.75
2022-08-21T08:17:14.862Z,96204.00
2022-08-21T08:19:41.665Z,96197.50
2022-08-21T08:22:15.579Z,96212.31
2022-08-21T08:24:42.783Z,96203.72
2022-08-21T08:27:09.573Z,96195.72
2022-08-21T08:29:36.212Z,96198.91
2022-08-21T08:32:03.599Z,96196.63
2022-08-21T08:34:31.936Z,96189.06
2022-08-21T08:36:59.525Z,96196.13
2022-08-21T08:39:29.647Z,96198.56
2022-08-21T08:42:33.945Z,96191.88
2022-08-21T08:45:03.576Z,96184.81
2022-08-21T08:47:32.719Z,96189.75
2022-08-21T08:50:10.323Z,96187.28
2022-08-21T08:52:46.845Z,96196.41
2022-08-21T08:55:27.525Z,96187.91
2022-08-21T08:57:56.451Z,96178.72
2022-08-21T09:00:24.908Z,96186.63
2022-08-21T09:02:55.280Z,96178.00
2022-08-21T09:06:01.284Z,96186.00
2022-08-21T09:08:50.508Z,96179.78
2022-08-21T09:11:28.752Z,96174.16
2022-08-21T09:14:30.019Z,96167.19
2022-08-21T09:17:06.320Z,96179.38
2022-08-21T09:19:32.759Z,96169.25
2022-08-21T09:22:17.988Z,96167.72
2022-08-21T09:25:11.912Z,96171.72
2022-08-21T09:27:39.421Z,96168.31
2022-08-21T09:30:08.969Z,96169.16
2022-08-21T09:32:38.284Z,96163.84
2022-08-21T09:35:04.842Z,96153.59
2022-08-21T09:37:33.242Z,96155.41
2022-08-21T09:40:00.227Z,96161.63
2022-08-21T09:42:30.082Z,96160.06
2022-08-21T09:45:13.042Z,96161.91
2022-08-21T09:47:39.469Z,96150.88
2022-08-21T09:50:32.541Z,96161.75
2022-08-21T09:53:02.252Z,96152.88
2022-08-21T09:56:07.576Z,96155.22
2022-08-21T09:58:37.321Z,96150.13
2022-08-21T10:01:06.387Z,96149.56
2022-08-21T10:03:34.048Z,96147.19
2022-08-21T10:06:07.308Z,96148.47
2022-08-21T10:08:41.540Z,96143.66
2022-08-21T10:11:14.636Z,96137.88
2022-08-21T10:13:59.312Z,96138.72
2022-08-21T10:16:48.222Z,96135.28
2022-08-21T10:19:24.403Z,96144.94
2022-08-21T10:22:09.936Z,96136.81
2022-08-21T10:24:53.897Z,96133.41
2022-08-21T10:27:28.269Z,96136.06
2022-08-21T10:30:01.482Z,96137.13
2022-08-21T10:32:54.171Z,96134.22
2022-08-21T10:35:23.659Z,96140.81
2022-08-21T10:38:39.418Z,96130.31
2022-08-21T10:41:33.109Z,96124.81
2022-08-21T10:44:25.338Z,96126.47
2022-08-21T10:47:06.942Z,96123.75
2022-08-21T10:49:36.462Z,96128.78
2022-08-21T10:52:29.515Z,96125.56
2022-08-21T10:55:01.732Z,96120.25
2022-08-21T10:57:43.794Z,96125.75
2022-08-21T11:00:17.549Z,96128.25
2022-08-21T11:02:51.776Z,96131.44
2022-08-21T11:05:48.833Z,96129.06
2022-08-21T11:08:42.206Z,96124.25
2022-08-21T11:11:19.971Z,96117.53
2022-08-21T11:13:57.259Z,96115.41
2022-08-21T11:16:45.026Z,96111.44
2022-08-21T11:19:32.825Z,96109.13
2022-08-21T11:22:26.681Z,96103.13
2022-08-21T11:25:04.062Z,96109.94
2022-08-21T11:27:55.544Z,96108.84
2022-08-21T11:30:24.939Z,96102.63
2022-08-21T11:33:44.312Z,96089.97
2022-08-21T11:36:26.196Z,96093.53
2022-08-21T11:39:05.894Z,96094.75
2022-08-21T11:41:41.743Z,96092.66
2022-08-21T11:44:45.923Z,96089.06
2022-08-21T11:47:31.262Z,96080.19
2022-08-21T11:50:35.507Z,96071.75
2022-08-21T11:53:18.321Z,96073.59
2022-08-21T11:55:57.951Z,96075.81
2022-08-21T11:58:46.755Z,96086.09
2022-08-21T12:01:24.473Z,96073.78
2022-08-21T12:04:03.714Z,96081.69
2022-08-21T12:06:39.267Z,96079.34
2022-08-21T12:09:12.886Z,96074.56
2022-08-21T12:11:51.426Z,96067.75
2022-08-21T12:14:20.097Z,96070.94
2022-08-21T12:16:49.785Z,96063.44
2022-08-21T12:19:22.005Z,96065.50
2022-08-21T12:22:06.670Z,96059.03
2022-08-21T12:24:51.744Z,96064.56
2022-08-21T12:27:18.214Z,96064.94
2022-08-21T12:29:51.394Z,96057.22
2022-08-21T12:32:17.687Z,96057.56
2022-08-21T12:34:53.769Z,96058.22
2022-08-21T12:37:46.788Z,96062.97
2022-08-21T12:40:23.406Z,96049.66
2022-08-21T12:42:58.807Z,96054.94
2022-08-21T12:45:30.268Z,96051.28
2022-08-21T12:48:13.996Z,96050.13
2022-08-21T12:50:51.176Z,96051.72
2022-08-21T12:53:45.746Z,96052.38
2022-08-21T12:56:16.224Z,96045.91
2022-08-21T12:58:51.099Z,96042.81
2022-08-21T13:01:41.500Z,96033.41
2022-08-21T13:04:12.934Z,96031.63
2022-08-21T13:06:43.171Z,96030.16
2022-08-21T13:09:25.143Z,96034.22
2022-08-21T13:11:52.761Z,96033.47
2022-08-21T13:14:31.972Z,96021.72
2022-08-21T13:17:00.525Z,96030.97
2022-08-21T13:19:27.754Z,96036.44
2022-08-21T13:21:54.538Z,96034.50
2022-08-21T13:27:26.136Z,96033.09
2022-08-21T13:30:11.016Z,96035.22
2022-08-21T13:32:43.151Z,96034.81
2022-08-21T13:35:17.434Z,96036.63
2022-08-21T13:37:47.583Z,96037.34
2022-08-21T13:40:21.562Z,96036.56
2022-08-21T13:42:49.644Z,96034.63
2022-08-21T13:45:22.156Z,96036.28
2022-08-21T13:47:49.051Z,96037.69
2022-08-21T13:50:19.520Z,96033.06
2022-08-21T13:53:09.201Z,96028.50
2022-08-21T13:55:43.323Z,96035.47
2022-08-21T13:58:12.121Z,96031.03
2022-08-21T14:00:51.265Z,96022.66
2022-08-21T14:03:38.570Z,96027.34
2022-08-21T14:06:19.748Z,96027.59
2022-08-21T14:08:54.813Z,96033.19
2022-08-21T14:11:22.290Z,96035.00
2022-08-21T14:13:52.356Z,96031.69
2022-08-21T14:16:46.878Z,96031.72
2022-08-21T14:19:20.983Z,96028.34
2022-08-21T14:21:48.066Z,96025.25
2022-08-21T14:24:27.711Z,96028.84
2022-08-21T14:26:59.755Z,96022.31
2022-08-21T14:29:28.671Z,96019.06
2022-08-21T14:32:01.931Z,96016.16
2022-08-21T14:34:35.777Z,96019.16
2022-08-21T14:37:03.108Z,96018.84
2022-08-21T14:39:29.480Z,96020.16
2022-08-21T14:41:58.167Z,96011.56
2022-08-21T14:44:24.911Z,96003.28
2022-08-21T14:46:56.097Z,96006.88
2022-08-21T14:49:27.385Z,95997.50
2022-08-21T14:51:57.938Z,96001.56
2022-08-21T14:54:30.960Z,95999.66
2022-08-21T14:57:00.168Z,96000.53
2022-08-21T14:59:26.727Z,95995.59
2022-08-21T15:01:53.289Z,95993.00
2022-08-21T15:04:20.451Z,95987.69
2022-08-21T15:06:46.849Z,95993.69
2022-08-21T15:09:13.262Z,95983.28
2022-08-21T15:11:42.012Z,95989.38
2022-08-21T15:14:14.658Z,95986.00
2022-08-21T15:16:41.243Z,95986.53
2022-08-21T15:19:07.619Z,95990.25
2022-08-21T15:21:34.023Z,95981.38
2022-08-21T15:24:00.750Z,95984.56
2022-08-21T15:26:27.143Z,95986.59
2022-08-21T15:28:53.555Z,95980.03
2022-08-21T15:31:20.344Z,95975.44
2022-08-21T15:33:46.959Z,95971.44
2022-08-21T15:36:13.378Z,95974.91
2022-08-21T15:38:40.267Z,95976.88
2022-08-21T15:41:07.025Z,95973.59
2022-08-21T15:43:46.878Z,95971.06
2022-08-21T15:46:16.399Z,95966.75
2022-08-21T15:48:43.349Z,95968.16
2022-08-21T15:51:12.451Z,95974.56
2022-08-21T15:53:40.909Z,95963.25
2022-08-21T15:56:19.100Z,95966.81
2022-08-21T15:58:45.859Z,95956.72
2022-08-21T16:01:12.399Z,95956.25
2022-08-21T16:03:39.312Z,95960.34
2022-08-21T16:06:06.355Z,95952.09
2022-08-21T16:08:32.743Z,95960.69
2022-08-21T16:11:00.815Z,95950.72
2022-08-21T16:13:33.559Z,95958.38
2022-08-21T16:16:00.053Z,95949.09
2022-08-21T16:18:27.283Z,95959.56
2022-08-21T16:20:53.897Z,95951.28
2022-08-21T16:23:20.341Z,95943.50
2022-08-21T16:25:47.307Z,95950.91
2022-08-21T16:28:17.064Z,95951.03
2022-08-21T16:30:45.995Z,95952.72
2022-08-21T16:33:33.863Z,95956.47
2022-08-21T16:36:02.041Z,95945.13
2022-08-21T16:38:29.471Z,95948.75
2022-08-21T16:40:56.760Z,95950.91
2022-08-21T16:43:26.163Z,95952.63
2022-08-21T16:45:53.931Z,95952.97
2022-08-21T16:48:21.035Z,95941.91
2022-08-21T16:50:50.956Z,95945.00
2022-08-21T16:53:17.549Z,95945.63
2022-08-21T16:55:44.772Z,95945.66
2022-08-21T16:58:18.843Z,95940.78
2022-08-21T17:00:45.714Z,95940.19
2022-08-21T17:03:16.478Z,95935.16
2022-08-21T17:05:44.055Z,95937.09
2022-08-21T17:08:10.897Z,95938.28
2022-08-21T17:10:37.542Z,95945.06
2022-08-21T17:13:09.076Z,95934.63
2022-08-21T17:15:38.675Z,95940.94
2022-08-21T17:18:08.235Z,95928.84
2022-08-21T17:20:34.688Z,95930.19
2022-08-21T17:23:01.792Z,95940.59
2022-08-21T17:25:28.312Z,95938.56
2022-08-21T17:27:55.470Z,95930.75
2022-08-21T17:30:23.060Z,95935.94
2022-08-21T17:32:53.196Z,95940.00
2022-08-21T17:35:20.076Z,95944.25
2022-08-21T17:37:47.179Z,95937.13
2022-08-21T17:40:15.348Z,95935.78
2022-08-21T17:42:43.888Z,95935.56
2022-08-21T17:45:14.612Z,95933.31
2022-08-21T17:47:41.363Z,95931.66
2022-08-21T17:50:09.546Z,95930.44
2022-08-21T17:52:37.052Z,95943.81
2022-08-21T17:55:04.656Z,95945.03
2022-08-21T17:57:35.095Z,95949.41
2022-08-21T18:00:06.240Z,95942.19
2022-08-21T18:02:33.653Z,95936.19
2022-08-21T18:05:00.018Z,95948.16
2022-08-21T18:07:32.766Z,95950.88
2022-08-21T18:10:05.230Z,95946.91
2022-08-21T18:12:33.249Z,95948.28
2022-08-21T18:15:00.955Z,95950.22
2022-08-21T18:17:30.175Z,95950.78
2022-08-21T18:19:57.068Z,95947.03
2022-08-21T18:22:23.898Z,95949.16
2022-08-21T18:24:50.261Z,95961.25
2022-08-21T18:27:17.544Z,95958.53
2022-08-21T18:29:47.222Z,95961.22
2022-08-21T18:32:30.706Z,95967.38
2022-08-21T18:35:01.344Z,95966.50
2022-08-21T18:37:28.000Z,95969.63
2022-08-21T18:39:54.595Z,95973.09
2022-08-21T18:42:28.517Z,95973.06
2022-08-21T18:45:00.730Z,95978.63
2022-08-21T18:47:34.027Z,95979.16
2022-08-21T18:50:00.414Z,95980.91
2022-08-21T18:55:15.915Z,95986.69
2022-08-21T18:57:46.540Z,95983.88
2022-08-21T19:00:38.026Z,95988.59
2022-08-21T19:03:12.131Z,95988.31
2022-08-21T19:05:43.571Z,95986.69
2022-08-21T19:08:13.041Z,95992.06
2022-08-21T19:10:42.671Z,95989.03
2022-08-21T19:13:12.773Z,96000.75
2022-08-21T19:15:41.952Z,95996.41
2022-08-21T19:18:14.562Z,95993.50
2022-08-21T19:20:42.136Z,95993.84
2022-08-21T19:23:12.060Z,96003.72
2022-08-21T19:25:41.817Z,95998.66
2022-08-21T19:28:14.983Z,96002.41
2022-08-21T19:30:49.518Z,96001.81
2022-08-21T19:33:23.832Z,95998.56
2022-08-21T19:35:52.564Z,96002.28
2022-08-21T19:38:19.560Z,96000.78
2022-08-21T19:40:45.963Z,96004.16
2022-08-21T19:43:13.140Z,96005.13
2022-08-21T19:45:39.923Z,96000.47
2022-08-21T19:48:06.512Z,96006.00
2022-08-21T19:50:32.934Z,96006.81
2022-08-21T19:53:00.040Z,96010.22
2022-08-21T19:55:26.976Z,96008.81
2022-08-21T19:57:55.052Z,96002.56
2022-08-21T20:00:22.932Z,96004.28
2022-08-21T20:02:50.535Z,95997.97
2022-08-21T20:05:18.299Z,95997.59
2022-08-21T20:07:46.029Z,96005.44
2022-08-21T20:10:13.506Z,96003.66
2022-08-21T20:12:40.997Z,96004.50
2022-08-21T20:15:08.708Z,96000.25
2022-08-21T20:17:36.154Z,95999.97
2022-08-21T20:20:03.874Z,95998.25
2022-08-21T20:22:30.245Z,95996.38
2022-08-21T20:24:57.018Z,95999.44
2022-08-21T20:27:25.898Z,96003.06
2022-08-21T20:29:53.860Z,96002.09
2022-08-21T20:32:22.463Z,96000.72
2022-08-21T20:34:51.825Z,95999.69
2022-08-21T20:37:22.414Z,96005.50
2022-08-21T20:40:06.164Z,96009.16
2022-08-21T20:42:33.164Z,96001.91
2022-08-21T20:45:01.161Z,96008.28
2022-08-21T20:47:29.471Z,96005.53
2022-08-21T20:50:00.360Z,96001.31
2022-08-21T20:52:26.822Z,96004.69
2022-08-21T20:55:05.228Z,96002.59
2022-08-21T20:57:42.435Z,95999.81
2022-08-21T21:00:15.451Z,96004.13
2022-08-21T21:02:50.835Z,95997.72
2022-08-21T21:05:21.306Z,95999.81
2022-08-21T21:07:55.632Z,96004.16
2022-08-21T21:10:31.149Z,96010.59
2022-08-21T21:13:14.592Z,96006.22
2022-08-21T21:15:44.238Z,96010.84
2022-08-21T21:18:18.448Z,96006.53
2022-08-21T21:20:52.082Z,96012.81
2022-08-21T21:23:35.542Z,96005.50
2022-08-21T21:26:16.559Z,96008.19
2022-08-21T21:28:46.958Z,96006.75
2022-08-21T21:31:13.711Z,96003.19
2022-08-21T21:33:40.423Z,96004.94
2022-08-21T21:36:28.379Z,96011.22
2022-08-21T21:39:08.312Z,96010.97
2022-08-21T21:41:37.065Z,96005.78
2022-08-21T21:44:37.951Z,96004.16
2022-08-21T21:47:19.386Z,96007.06
2022-08-21T21:50:03.943Z,96002.88
2022-08-21T21:52:41.136Z,96013.31
2022-08-21T21:55:32.779Z,96014.34
2022-08-21T21:58:16.699Z,96008.81
2022-08-21T22:00:52.277Z,96016.91
2022-08-21T22:03:46.367Z,96008.69
2022-08-21T22:06:23.075Z,96009.63
2022-08-21T22:09:03.543Z,96015.88
2022-08-21T22:11:55.555Z,96009.53
2022-08-21T22:14:42.169Z,96018.31
2022-08-21T22:17:37.042Z,96017.16
2022-08-21T22:20:13.787Z,96020.41
2022-08-21T22:22:43.006Z,96019.50
2022-08-21T22:25:21.258Z,96027.25
2022-08-21T22:27:57.126Z,96023.63
2022-08-21T22:30:54.622Z,96024.81
2022-08-21T22:33:24.720Z,96023.44
2022-08-21T22:35:53.698Z,96028.41
2022-08-21T22:38:30.247Z,96031.53
2022-08-21T22:41:28.606Z,96036.28
2022-08-21T22:44:03.930Z,96037.19
2022-08-21T22:46:48.255Z,96036.03
2022-08-21T22:49:47.247Z,96028.41
2022-08-21T22:52:26.945Z,96032.66
2022-08-21T22:55:00.310Z,96033.72
2022-08-21T22:57:31.030Z,96029.69
2022-08-21T23:00:12.574Z,96025.03
2022-08-21T23:02:52.463Z,96026.91
2022-08-21T23:05:30.906Z,96028.06
2022-08-21T23:08:24.256Z,96012.97
2022-08-21T23:10:56.351Z,96019.50
2022-08-21T23:13:23.317Z,96019.94
2022-08-21T23:16:01.390Z,96016.13
2022-08-21T23:18:47.412Z,96016.94
2022-08-21T23:21:44.921Z,96015.88
2022-08-21T23:24:19.426Z,96021.78
2022-08-21T23:27:07.907Z,96016.56
2022-08-21T23:29:51.729Z,96017.94
2022-08-21T23:32:56.155Z,96026.03
2022-08-21T23:35:51.888Z,96014.03
2022-08-21T23:38:48.923Z,96010.47
2022-08-21T23:44:31.229Z,96016.22
2022-08-21T23:47:13.304Z,96017.63
2022-08-21T23:49:53.997Z,96013.31
2022-08-21T23:52:42.811Z,96016.72
2022-08-21T23:55:14.974Z,96017.84
2022-08-21T23:57:58.542Z,96015.06
